Time;durP1;ratioP1;P1;durP2;ratioP2;P2;SDS_P1;SDS_P2;PMS_P1;PMS_P2;Temp;Humidity;BMP_temperature;BMP_pressure;BME280_temperature;BME280_humidity;BME280_pressure;Samples;Min_cycle;Max_cycle;Signal;HPM_P1;HPM_P2
2023/06/17 04:49:18;;;;;;;;;;;19.10;59.70;;;;;;5597574;22;19926;-68
2023/06/17 04:51:44;;;;;;;;;;;19.20;56.00;;;;;;5013972;28;19972;-68
2023/06/17 04:54:11;;;;;;;;;;;19.60;54.10;;;;;;5014062;28;19925;-68
2023/06/17 04:56:38;;;;;;;;;;;20.00;51.30;;;;;;5014073;28;19926;-68
2023/06/17 04:59:04;;;;;;;;;;;20.30;48.10;;;;;;5014020;28;19949;-69
2023/06/17 05:01:31;;;;;;;;;;;20.40;47.50;;;;;;5014039;28;19933;-68
2023/06/17 05:03:57;;;;;;;;;;;20.60;46.50;;;;;;5014616;28;19933;-68
2023/06/17 05:06:26;;;;;;;;;;;20.50;43.50;;;;;;5014010;28;19932;-68
2023/06/17 05:08:52;;;;;;;;;;;20.50;43.50;;;;;;5014380;28;20024;-68
2023/06/17 05:11:19;;;;;;;;;;;20.50;42.50;;;;;;5014116;28;19925;-68
2023/06/17 05:13:45;;;;;;;;;;;20.60;43.70;;;;;;5013999;28;19925;-68
2023/06/17 05:16:12;;;;;;;;;;;20.70;42.80;;;;;;5014007;28;19925;-68
2023/06/17 05:18:39;;;;;;;;;;;21.00;43.00;;;;;;5014076;28;19981;-67
2023/06/17 05:21:05;;;;;;;;;;;21.50;44.20;;;;;;5013920;28;19972;-68
2023/06/17 05:23:33;;;;;;;;;;;22.10;43.30;;;;;;5013942;28;19933;-68
2023/06/17 05:26:00;;;;;;;;;;;22.80;44.40;;;;;;5013518;28;19926;-68
2023/06/17 05:28:26;;;;;;;;;;;23.40;39.00;;;;;;5013453;28;20373;-68
2023/06/17 05:30:53;;;;;;;;;;;23.70;39.80;;;;;;5013790;28;19992;-68
2023/06/17 05:33:20;;;;;;;;;;;24.30;37.60;;;;;;5013832;28;20343;-68
2023/06/17 05:35:46;;;;;;;;;;;24.80;39.20;;;;;;5013731;28;20293;-68
2023/06/17 05:38:13;;;;;;;;;;;25.40;37.70;;;;;;5013735;28;19932;-68
2023/06/17 05:40:41;;;;;;;;;;;26.10;35.70;;;;;;5013700;28;19936;-68
2023/06/17 05:43:07;;;;;;;;;;;26.90;34.40;;;;;;5013599;28;19926;-68
2023/06/17 05:45:34;;;;;;;;;;;27.80;37.30;;;;;;5013336;28;19926;-68
2023/06/17 05:48:00;;;;;;;;;;;28.90;36.70;;;;;;5016674;28;19926;-68
2023/06/17 05:50:27;;;;;;;;;;;29.60;35.10;;;;;;5016961;28;20427;-68
2023/06/17 05:52:53;;;;;;;;;;;30.40;31.20;;;;;;5016888;28;19937;-67
2023/06/17 05:55:20;;;;;;;;;;;30.90;31.80;;;;;;5017253;28;19929;-67
2023/06/17 05:57:48;;;;;;;;;;;31.30;32.10;;;;;;5017234;28;19933;-67
2023/06/17 06:00:15;;;;;;;;;;;31.90;30.70;;;;;;5017149;28;20019;-67
2023/06/17 06:02:42;;;;;;;;;;;32.30;30.20;;;;;;5017041;28;19925;-67
2023/06/17 06:05:08;;;;;;;;;;;32.90;27.70;;;;;;5017001;28;19934;-67
2023/06/17 06:07:35;;;;;;;;;;;33.10;27.10;;;;;;5016916;28;19925;-67
2023/06/17 06:10:03;;;;;;;;;;;33.40;24.50;;;;;;5016863;28;19932;-67
2023/06/17 06:12:29;;;;;;;;;;;33.70;22.90;;;;;;5016736;28;19929;-67
2023/06/17 06:14:57;;;;;;;;;;;34.10;22.60;;;;;;5016466;28;20377;-67
2023/06/17 06:17:24;;;;;;;;;;;34.20;24.60;;;;;;5016338;28;20289;-67
2023/06/17 06:19:51;;;;;;;;;;;34.40;26.20;;;;;;5016675;28;19925;-68
2023/06/17 06:22:18;;;;;;;;;;;34.70;27.20;;;;;;5016656;28;19932;-68
2023/06/17 06:24:44;;;;;;;;;;;35.00;26.60;;;;;;5016604;28;19929;-68
2023/06/17 06:27:11;;;;;;;;;;;35.40;27.60;;;;;;5016483;28;19925;-68
2023/06/17 06:29:38;;;;;;;;;;;35.50;27.60;;;;;;5016283;28;19926;-68
2023/06/17 06:32:06;;;;;;;;;;;35.70;27.20;;;;;;5016366;28;19925;-68
2023/06/17 06:34:33;;;;;;;;;;;35.90;26.90;;;;;;5016345;28;19925;-68
2023/06/17 06:37:00;;;;;;;;;;;36.30;26.40;;;;;;5016314;28;19934;-68
2023/06/17 06:39:27;;;;;;;;;;;37.00;25.80;;;;;;5016233;28;19925;-68
2023/06/17 06:41:53;;;;;;;;;;;37.50;24.30;;;;;;5015995;28;19932;-68
2023/06/17 06:44:20;;;;;;;;;;;37.80;24.50;;;;;;5017681;28;19969;-67
2023/06/17 06:46:46;;;;;;;;;;;38.10;26.30;;;;;;5018468;28;20270;-67
2023/06/17 06:49:14;;;;;;;;;;;38.30;26.50;;;;;;5016579;28;19925;-68
2023/06/17 06:51:41;;;;;;;;;;;38.50;26.90;;;;;;5015621;28;20369;-67
2023/06/17 06:54:08;;;;;;;;;;;38.50;28.10;;;;;;5015894;28;19925;-68
2023/06/17 06:56:34;;;;;;;;;;;38.70;27.10;;;;;;5015549;28;20273;-68
2023/06/17 06:59:01;;;;;;;;;;;38.70;26.30;;;;;;5015846;28;19976;-68
2023/06/17 07:01:27;;;;;;;;;;;38.90;25.50;;;;;;5015870;28;19925;-68
2023/06/17 07:03:54;;;;;;;;;;;39.10;26.20;;;;;;5015763;28;19925;-68
2023/06/17 07:06:22;;;;;;;;;;;39.40;26.80;;;;;;5015773;28;20299;-68
2023/06/17 07:08:48;;;;;;;;;;;39.60;27.10;;;;;;5015416;28;20293;-69
2023/06/17 07:11:15;;;;;;;;;;;40.00;27.00;;;;;;5015378;28;20384;-70
2023/06/17 07:13:42;;;;;;;;;;;40.40;26.90;;;;;;5015616;28;19930;-69
2023/06/17 07:16:08;;;;;;;;;;;40.60;27.30;;;;;;5015660;28;20385;-69
2023/06/17 07:18:35;;;;;;;4.22;3.92;;;40.90;29.00;;;;;;5014411;28;20416;-74
2023/06/17 07:21:02;;;;;;;4.07;3.78;;;39.80;16.70;;;;;;5015068;28;20202;-73
2023/06/17 07:23:30;;;;;;;4.10;3.80;;;38.50;17.40;;;;;;5014967;28;20225;-73
2023/06/17 07:25:57;;;;;;;3.65;3.33;;;37.60;16.50;;;;;;5014978;28;20205;-74
2023/06/17 07:28:23;;;;;;;3.28;3.08;;;37.10;16.70;;;;;;5014552;28;20209;-73
2023/06/17 07:30:50;;;;;;;4.18;3.88;;;37.30;17.60;;;;;;5014871;28;20205;-75
2023/06/17 07:33:17;;;;;;;3.67;3.42;;;36.80;18.00;;;;;;5014824;28;20204;-74
2023/06/17 07:35:44;;;;;;;3.83;3.42;;;36.70;19.30;;;;;;5014791;28;20225;-74
2023/06/17 07:38:11;;;;;;;6.28;4.05;;;37.00;18.20;;;;;;5014341;28;20229;-74
2023/06/17 07:40:39;;;;;;;3.67;3.42;;;36.70;18.50;;;;;;5014627;28;20201;-74
2023/06/17 07:43:05;;;;;;;5.53;3.35;;;36.60;18.30;;;;;;5014214;28;20224;-74
2023/06/17 07:45:32;;;;;;;3.80;3.40;;;36.80;18.20;;;;;;5014578;28;20197;-74
2023/06/17 07:47:59;;;;;;;3.92;3.63;;;37.00;17.50;;;;;;5014235;28;20208;-74
2023/06/17 07:50:26;;;;;;;3.58;3.38;;;37.20;16.90;;;;;;5014121;28;20608;-75
2023/06/17 07:52:52;;;;;;;3.38;3.17;;;37.40;16.90;;;;;;5014089;28;20201;-75
2023/06/17 07:55:20;;;;;;;3.20;3.00;;;37.50;16.40;;;;;;5014494;28;20197;-75
2023/06/17 07:57:48;;;;;;;3.20;3.00;;;38.10;14.90;;;;;;5014328;28;20259;-75
2023/06/17 08:00:16;;;;;;;2.45;2.30;;;38.20;14.30;;;;;;5014192;28;20222;-73
2023/06/17 08:02:43;;;;;;;2.40;2.30;;;38.20;14.30;;;;;;5014290;28;20568;-73
2023/06/17 08:05:10;;;;;;;2.80;2.70;;;38.50;14.50;;;;;;5014340;28;20208;-75
2023/06/17 08:07:37;;;;;;;2.80;2.60;;;38.50;13.70;;;;;;5014473;28;20206;-74
2023/06/17 08:10:04;;;;;;;2.17;2.10;;;37.90;13.70;;;;;;5014756;28;20228;-75
2023/06/17 08:12:31;;;;;;;1.98;1.90;;;36.80;14.20;;;;;;5014069;28;20229;-75
2023/06/17 08:14:59;;;;;;;2.42;2.30;;;35.80;14.80;;;;;;5014172;28;20581;-74
2023/06/17 08:17:26;;;;;;;2.58;2.47;;;34.70;15.60;;;;;;5014130;28;20209;-75
2023/06/17 08:19:52;;;;;;;3.15;2.90;;;33.50;15.70;;;;;;5014007;28;20218;-75
2023/06/17 08:22:20;;;;;;;2.65;2.55;;;32.00;16.00;;;;;;5014023;28;20197;-73
2023/06/17 08:24:47;;;;;;;2.60;2.50;;;31.10;17.50;;;;;;5013973;28;20252;-73
2023/06/17 08:27:13;;;;;;;5.28;3.45;;;30.60;18.70;;;;;;5013990;28;20212;-73
2023/06/17 08:29:40;;;;;;;2.70;2.60;;;30.20;18.90;;;;;;5013935;28;20228;-73
2023/06/17 08:32:08;;;;;;;3.47;3.28;;;29.70;19.80;;;;;;5013929;28;20601;-73
2023/06/17 08:34:36;;;;;;;4.05;2.95;;;29.20;19.70;;;;;;5013969;28;20205;-72
2023/06/17 08:37:04;;;;;;;3.22;2.97;;;28.80;20.40;;;;;;5013641;28;20209;-71
2023/06/17 08:39:31;;;;;;;3.63;3.38;;;28.50;19.00;;;;;;5013481;28;20704;-72
2023/06/17 08:41:58;;;;;;;2.90;2.80;;;28.10;20.10;;;;;;5013381;28;20582;-72
2023/06/17 08:44:27;;;;;;;5.70;3.10;;;28.00;19.80;;;;;;5013552;28;20284;-73
2023/06/17 08:46:54;;;;;;;3.53;3.33;;;27.70;19.60;;;;;;5013135;28;20228;-74
2023/06/17 08:49:23;;;;;;;3.13;2.95;;;27.20;19.30;;;;;;5013630;28;20233;-74
2023/06/17 08:51:50;;;;;;;4.22;3.63;;;26.90;19.30;;;;;;5013337;28;20691;-75
2023/06/17 08:54:19;;;;;;;3.88;3.60;;;26.60;18.90;;;;;;5013488;28;20261;-75
2023/06/17 08:56:46;;;;;;;3.72;3.42;;;26.40;19.80;;;;;;5013456;28;20205;-74
2023/06/17 08:59:13;;;;;;;3.72;3.45;;;26.20;19.80;;;;;;5013461;28;20217;-74
2023/06/17 09:01:40;;;;;;;3.45;3.25;;;25.80;20.30;;;;;;5013493;28;20201;-74
2023/06/17 09:04:07;;;;;;;3.25;3.05;;;25.90;21.00;;;;;;5013398;28;20588;-73
2023/06/17 09:06:35;;;;;;;4.00;3.75;;;25.90;20.60;;;;;;5013481;28;20205;-73
2023/06/17 09:09:01;;;;;;;3.35;3.20;;;25.80;20.00;;;;;;5013671;28;20233;-74
2023/06/17 09:11:30;;;;;;;3.63;3.42;;;25.60;20.80;;;;;;5013642;28;20206;-75
2023/06/17 09:13:58;;;;;;;3.35;3.13;;;25.50;20.80;;;;;;5013051;28;20719;-74
2023/06/17 09:16:26;;;;;;;4.43;3.50;;;25.40;20.90;;;;;;5013442;28;20209;-75
2023/06/17 09:18:55;;;;;;;5.28;3.72;;;25.30;21.30;;;;;;5013208;28;20267;-75
2023/06/17 09:21:22;;;;;;;3.83;3.63;;;25.30;21.70;;;;;;5012801;28;20637;-75
2023/06/17 09:23:55;;;;;;;3.13;3.03;;;25.30;21.30;;;;;;5016513;28;20201;-75
2023/06/17 09:26:25;;;;;;;4.05;3.42;;;25.40;21.00;;;;;;5017140;28;20292;-75
2023/06/17 09:28:51;;;;;;;3.28;3.08;;;25.40;21.70;;;;;;5017576;28;20218;-75
2023/06/17 09:31:18;;;;;;;3.33;3.13;;;25.40;22.10;;;;;;5017139;28;20208;-75
2023/06/17 09:33:46;;;;;;;3.45;3.25;;;25.50;22.10;;;;;;5016939;28;20224;-75
2023/06/17 09:36:14;;;;;;;3.63;3.42;;;25.60;21.90;;;;;;5018120;28;20198;-75
2023/06/17 09:38:42;;;;;;;3.40;3.20;;;25.70;21.50;;;;;;5016549;28;20766;-74
2023/06/17 09:41:14;;;;;;;3.47;3.20;;;25.70;22.50;;;;;;5016899;28;20197;-74
2023/06/17 09:43:41;;;;;;;3.10;2.90;;;26.00;22.20;;;;;;5016610;28;20182;-74
2023/06/17 09:46:11;;;;;;;3.42;3.22;;;26.30;22.10;;;;;;5016853;28;20236;-74
2023/06/17 09:48:38;;;;;;;3.53;3.33;;;26.60;21.40;;;;;;5016994;28;20249;-74
2023/06/17 09:51:09;;;;;;;4.07;3.70;;;26.70;21.80;;;;;;5016656;28;20213;-75
2023/06/17 09:53:36;;;;;;;3.63;3.33;;;26.70;21.00;;;;;;5016658;28;20241;-75
2023/06/17 09:56:04;;;;;;;3.50;3.30;;;26.60;21.40;;;;;;5016521;28;20202;-75
2023/06/17 09:58:34;;;;;;;4.50;4.13;;;26.50;21.30;;;;;;5016693;28;20222;-74
2023/06/17 10:01:05;;;;;;;3.78;3.38;;;26.10;22.30;;;;;;5016799;28;20271;-74
2023/06/17 10:03:32;;;;;;;5.13;4.05;;;26.10;22.70;;;;;;5016638;28;20197;-72
2023/06/17 10:06:03;;;;;;;4.03;3.63;;;25.70;22.10;;;;;;5016753;28;20205;-74
2023/06/17 10:08:31;;;;;;;3.95;3.65;;;25.60;22.90;;;;;;5016104;28;20272;-74
2023/06/17 10:11:00;;;;;;;3.50;3.30;;;25.60;23.40;;;;;;5016116;28;20677;-75
2023/06/17 10:13:29;;;;;;;3.55;3.35;;;25.60;22.90;;;;;;5016333;28;20385;-75
2023/06/17 10:15:59;;;;;;;3.38;3.08;;;25.90;23.10;;;;;;5016440;28;20197;-75
2023/06/17 10:18:28;;;;;;;3.88;3.45;;;26.20;23.20;;;;;;5018058;28;20212;-74
2023/06/17 10:20:56;;;;;;;3.65;3.45;;;26.30;22.90;;;;;;5016729;28;20205;-73
2023/06/17 10:23:24;;;;;;;4.20;3.90;;;26.40;22.70;;;;;;5016384;28;20193;-73
2023/06/17 10:25:51;;;;;;;3.80;3.60;;;26.50;22.90;;;;;;5015883;28;20296;-72
2023/06/17 10:28:17;;;;;;;3.65;3.45;;;26.70;23.10;;;;;;5016112;28;20213;-73
2023/06/17 10:30:45;;;;;;;3.55;3.35;;;27.10;22.60;;;;;;5016090;28;20197;-73
2023/06/17 10:33:14;;;;;;;4.25;3.85;;;27.30;22.90;;;;;;5015864;28;20602;-74
2023/06/17 10:35:41;;;;;;;3.80;3.60;;;27.60;21.90;;;;;;5016187;28;20201;-73
2023/06/17 10:38:09;;;;;;;4.18;3.85;;;27.70;21.20;;;;;;5016144;28;20201;-75
2023/06/17 10:40:40;;;;;;;4.53;3.95;;;27.80;21.30;;;;;;5015941;28;20204;-74
2023/06/17 10:43:17;;;;;;;3.83;3.63;;;27.70;20.70;;;;;;5015801;28;20193;-74
2023/06/17 10:45:54;;;;;;;4.03;3.72;;;27.50;20.50;;;;;;5015370;28;20208;-74
2023/06/17 10:48:24;;;;;;;3.72;3.42;;;27.30;21.00;;;;;;5015666;28;20236;-74
2023/06/17 10:50:56;;;;;;;4.13;3.50;;;27.10;21.30;;;;;;5015478;28;20205;-67
2023/06/17 10:53:28;;;;;;;3.53;3.33;;;26.70;21.20;;;;;;5015675;28;20336;-68
2023/06/17 10:55:56;;;;;;;3.47;3.17;;;26.30;22.10;;;;;;5015603;28;20201;-66
2023/06/17 10:58:23;;;;;;;3.38;3.17;;;25.90;22.40;;;;;;5015551;28;20207;-66
2023/06/17 11:00:59;;;;;;;4.50;3.80;;;25.70;22.40;;;;;;5015546;28;20206;-67
2023/06/17 11:03:27;;;;;;;3.30;3.10;;;25.40;22.80;;;;;;5015413;28;20185;-66
2023/06/17 11:05:57;;;;;;;3.10;2.90;;;25.20;22.70;;;;;;5015334;28;20201;-66
2023/06/17 11:08:24;;;;;;;3.42;2.88;;;25.20;23.90;;;;;;5015350;28;20197;-66
2023/06/17 11:10:51;;;;;;;4.07;3.78;;;25.30;24.60;;;;;;5015071;28;20567;-67
2023/06/17 11:13:20;;;;;;;3.83;3.38;;;25.10;22.70;;;;;;5014859;28;20586;-66
2023/06/17 11:15:47;;;;;;;4.18;3.78;;;25.00;23.00;;;;;;5015102;28;20618;-72
2023/06/17 11:18:14;;;;;;;3.35;3.15;;;24.90;23.10;;;;;;5015084;28;20553;-66
2023/06/17 11:20:43;;;;;;;3.90;3.70;;;24.80;23.60;;;;;;5014712;28;20209;-66
2023/06/17 11:23:10;;;;;;;3.63;3.40;;;24.80;23.50;;;;;;5015524;28;20209;-65
2023/06/17 11:25:38;;;;;;;3.78;3.40;;;24.70;23.60;;;;;;5015377;28;20233;-65
2023/06/17 11:28:06;;;;;;;3.25;2.97;;;24.60;23.10;;;;;;5015276;28;20292;-66
2023/06/17 11:30:33;;;;;;;3.28;3.08;;;24.60;23.00;;;;;;5015693;28;20275;-66
2023/06/17 11:33:00;;;;;;;2.63;2.53;;;24.50;23.40;;;;;;5022191;28;20186;-66
2023/06/17 11:35:27;;;;;;;3.42;3.20;;;24.60;23.30;;;;;;5026865;28;20553;-66
2023/06/17 11:37:55;;;;;;;2.85;2.75;;;24.70;23.70;;;;;;5028247;28;20205;-67
2023/06/17 11:40:24;;;;;;;3.80;3.60;;;24.80;23.80;;;;;;5021644;28;20651;-66
2023/06/17 11:42:52;;;;;;;3.38;3.17;;;24.90;23.10;;;;;;5014851;28;20224;-66
2023/06/17 11:45:20;;;;;;;3.78;3.42;;;25.10;23.70;;;;;;5014165;28;20252;-67
2023/06/17 11:47:46;;;;;;;3.53;3.17;;;25.30;23.10;;;;;;5014863;28;20296;-67
2023/06/17 11:50:14;;;;;;;2.80;2.67;;;25.40;22.80;;;;;;5014395;28;20716;-67
2023/06/17 11:52:40;;;;;;;4.10;3.33;;;25.40;22.80;;;;;;5014425;28;20300;-65
2023/06/17 11:55:14;;;;;;;3.08;2.88;;;25.50;22.60;;;;;;5014638;28;20591;-66
2023/06/17 11:57:43;;;;;;;3.85;3.10;;;25.30;21.80;;;;;;5014543;28;20189;-66
2023/06/17 12:00:11;;;;;;;2.55;2.45;;;25.30;22.70;;;;;;5014751;28;20225;-66
2023/06/17 12:02:39;;;;;;;3.08;2.88;;;25.20;22.70;;;;;;5014434;28;20205;-66
2023/06/17 12:05:07;;;;;;;2.70;2.58;;;25.20;23.10;;;;;;5014922;28;20186;-66
2023/06/17 12:07:38;;;;;;;2.08;2.00;;;25.20;23.10;;;;;;5014773;28;20548;-66
2023/06/17 12:10:06;;;;;;;2.60;2.40;;;25.30;23.40;;;;;;5014527;28;20221;-67
2023/06/17 12:12:37;;;;;;;1.95;1.95;;;25.40;22.80;;;;;;5014034;28;20684;-65
2023/06/17 12:15:06;;;;;;;2.83;2.65;;;25.50;22.80;;;;;;5013792;28;20248;-65
2023/06/17 12:17:42;;;;;;;2.72;2.53;;;25.50;22.50;;;;;;5014796;28;20247;-65
2023/06/17 12:20:14;;;;;;;2.67;2.55;;;25.50;22.90;;;;;;5014156;28;20240;-65
2023/06/17 12:22:41;;;;;;;3.67;3.38;;;25.60;22.90;;;;;;5014092;28;20190;-64
2023/06/17 12:25:09;;;;;;;2.83;2.72;;;25.50;22.50;;;;;;5013846;28;20645;-66
2023/06/17 12:27:37;;;;;;;2.67;2.58;;;25.50;22.90;;;;;;5013779;28;20665;-66
2023/06/17 12:30:05;;;;;;;2.88;2.78;;;25.60;22.90;;;;;;5013960;28;20217;-66
2023/06/17 12:32:32;;;;;;;3.80;3.15;;;25.70;22.90;;;;;;5013922;28;20205;-66
2023/06/17 12:34:58;;;;;;;3.65;3.33;;;25.80;21.90;;;;;;5013851;28;20225;-65
2023/06/17 12:37:27;;;;;;;3.45;3.00;;;25.70;22.20;;;;;;5013542;28;20668;-65
2023/06/17 12:39:57;;;;;;;2.95;2.78;;;25.70;22.10;;;;;;5013686;28;20232;-65
2023/06/17 12:42:24;;;;;;;3.40;3.10;;;25.70;22.10;;;;;;5013949;28;20194;-65
2023/06/17 12:44:53;;;;;;;3.50;3.33;;;25.70;22.00;;;;;;5013849;28;20205;-66
2023/06/17 12:47:20;;;;;;;3.00;2.85;;;25.60;22.20;;;;;;5014425;28;20212;-66
2023/06/17 12:49:48;;;;;;;3.85;3.55;;;25.70;21.60;;;;;;5014566;28;20228;-67
2023/06/17 12:52:15;;;;;;;4.25;3.20;;;25.70;21.50;;;;;;5013633;28;20214;-66
2023/06/17 12:54:43;;;;;;;3.33;3.13;;;25.80;21.60;;;;;;5013746;28;20221;-66
2023/06/17 12:57:10;;;;;;;3.83;2.83;;;25.80;21.20;;;;;;5016424;28;20201;-66
2023/06/17 12:59:37;;;;;;;2.88;2.72;;;25.80;21.40;;;;;;5017732;28;20251;-67
2023/06/17 13:02:06;;;;;;;2.53;2.42;;;25.90;21.80;;;;;;5017508;28;20661;-66
2023/06/17 13:04:33;;;;;;;3.47;3.28;;;25.80;22.50;;;;;;5017323;28;20612;-66
2023/06/17 13:06:59;;;;;;;2.75;2.65;;;25.70;22.90;;;;;;5017525;28;20207;-67
2023/06/17 13:09:26;;;;;;;2.63;2.45;;;25.70;25.40;;;;;;5017429;28;20222;-66
2023/06/17 13:11:53;;;;;;;3.38;3.10;;;25.60;25.50;;;;;;5017242;28;20699;-65
2023/06/17 13:14:20;;;;;;;5.75;2.80;;;25.40;23.00;;;;;;5017370;28;20217;-66
2023/06/17 13:16:47;;;;;;;3.20;2.97;;;25.30;22.80;;;;;;5017296;28;20197;-65
2023/06/17 13:19:17;;;;;;;4.30;3.95;;;25.20;22.70;;;;;;5017234;28;20229;-66
2023/06/17 13:21:44;;;;;;;3.55;3.25;;;25.10;22.70;;;;;;5017224;28;20211;-65
2023/06/17 13:24:10;;;;;;;3.90;3.25;;;25.00;23.10;;;;;;5017049;28;20229;-65
2023/06/17 13:26:38;;;;;;;3.13;2.92;;;24.90;22.90;;;;;;5017201;28;20212;-66
2023/06/17 13:29:05;;;;;;;2.97;2.78;;;24.90;23.40;;;;;;5016734;28;20226;-66
2023/06/17 13:31:31;;;;;;;2.72;2.60;;;24.80;23.50;;;;;;5016830;28;20255;-66
2023/06/17 13:33:58;;;;;;;3.60;3.28;;;24.80;23.50;;;;;;5016952;28;20225;-66
2023/06/17 13:36:27;;;;;;;3.40;3.20;;;24.70;23.50;;;;;;5016568;28;20707;-66
2023/06/17 13:38:53;;;;;;;6.22;5.10;;;24.70;23.40;;;;;;5016846;28;20229;-65
2023/06/17 13:41:20;;;;;;;5.75;4.95;;;24.70;22.90;;;;;;5016943;28;20206;-65
2023/06/17 13:43:47;;;;;;;4.85;4.30;;;24.70;23.30;;;;;;5016407;28;20684;-65
2023/06/17 13:46:14;;;;;;;4.05;3.33;;;24.60;22.90;;;;;;5016560;28;20212;-65
2023/06/17 13:48:41;;;;;;;3.28;3.08;;;24.60;23.40;;;;;;5016738;28;20218;-66
2023/06/17 13:51:08;;;;;;;2.90;2.78;;;24.60;23.50;;;;;;5016658;28;20665;-66
2023/06/17 13:53:36;;;;;;;2.95;2.80;;;24.60;23.30;;;;;;5016809;28;20209;-65
2023/06/17 13:56:03;;;;;;;3.38;3.17;;;24.70;23.80;;;;;;5016193;28;20638;-65
2023/06/17 13:58:30;;;;;;;3.30;3.10;;;24.80;23.20;;;;;;5016712;28;20202;-65
2023/06/17 14:00:57;;;;;;;3.75;3.42;;;24.90;22.90;;;;;;5016524;28;20204;-65
2023/06/17 14:03:24;;;;;;;3.35;3.15;;;25.00;22.90;;;;;;5017341;28;20214;-64
2023/06/17 14:05:51;;;;;;;3.65;3.45;;;25.20;22.70;;;;;;5016541;28;20205;-66
2023/06/17 14:08:18;;;;;;;4.38;3.97;;;25.30;22.70;;;;;;5015624;28;20201;-65
2023/06/17 14:10:46;;;;;;;4.10;3.80;;;25.40;22.70;;;;;;5016017;28;20292;-65
2023/06/17 14:13:13;;;;;;;3.53;3.33;;;25.40;22.20;;;;;;5016272;28;20338;-65
2023/06/17 14:15:40;;;;;;;3.80;3.50;;;25.40;22.20;;;;;;5015932;28;20692;-65
2023/06/17 14:18:07;;;;;;;3.45;3.25;;;25.40;22.50;;;;;;5016058;28;20204;-66
2023/06/17 14:20:34;;;;;;;6.25;4.07;;;25.50;22.90;;;;;;5016051;28;20597;-64
2023/06/17 14:23:02;;;;;;;3.60;3.40;;;25.60;22.30;;;;;;5016276;28;20205;-64
2023/06/17 14:25:29;;;;;;;3.25;3.05;;;25.60;22.10;;;;;;5016959;28;20206;-65
2023/06/17 14:27:58;;;;;;;3.72;3.42;;;25.70;22.40;;;;;;5016551;28;20193;-65
2023/06/17 14:30:25;;;;;;;3.55;3.25;;;25.70;22.20;;;;;;5015664;28;20726;-65
2023/06/17 14:32:52;;;;;;;3.42;3.13;;;25.70;22.00;;;;;;5015982;28;20208;-65
2023/06/17 14:35:19;;;;;;;2.80;2.70;;;25.80;22.30;;;;;;5015279;28;20630;-65
2023/06/17 14:37:48;;;;;;;2.88;2.67;;;25.90;22.40;;;;;;5015708;28;20186;-65
2023/06/17 14:40:16;;;;;;;3.28;3.08;;;25.90;22.30;;;;;;5015769;28;20221;-66
2023/06/17 14:42:42;;;;;;;3.25;3.10;;;25.80;21.60;;;;;;5015535;28;20190;-66
2023/06/17 14:45:12;;;;;;;2.80;2.60;;;25.80;21.90;;;;;;5015587;28;20198;-66
2023/06/17 14:47:40;;;;;;;2.60;2.50;;;25.90;22.60;;;;;;5015165;28;20204;-66
2023/06/17 14:50:08;;;;;;;2.58;2.40;;;25.90;22.30;;;;;;5015148;28;20229;-65
2023/06/17 14:52:35;;;;;;;3.97;3.22;;;25.90;22.70;;;;;;5015290;28;20213;-66
2023/06/17 14:55:03;;;;;;;2.80;2.70;;;26.00;22.40;;;;;;5015318;28;20228;-66
2023/06/17 14:57:29;;;;;;;3.67;3.47;;;26.00;22.00;;;;;;5015054;28;20720;-66
2023/06/17 14:59:56;;;;;;;3.40;3.25;;;25.90;22.00;;;;;;5015189;28;20244;-66
2023/06/17 15:02:42;;;;;;;3.78;3.58;;;25.80;22.20;;;;;;5015211;28;20572;-66
2023/06/17 15:05:09;;;;;;;4.10;3.80;;;25.70;22.20;;;;;;5015219;28;20190;-66
2023/06/17 15:07:36;;;;;;;4.18;3.83;;;25.60;22.10;;;;;;5014787;28;20657;-66
2023/06/17 15:10:03;;;;;;;3.88;3.65;;;25.60;21.50;;;;;;5014777;28;20221;-66
2023/06/17 15:12:29;;;;;;;3.17;2.97;;;25.60;21.80;;;;;;5015232;28;20596;-66
2023/06/17 15:14:56;;;;;;;2.65;2.55;;;25.70;22.70;;;;;;5014667;28;20792;-66
2023/06/17 15:17:23;;;;;;;3.05;2.95;;;25.70;22.90;;;;;;5015297;28;20201;-66
2023/06/17 15:19:51;;;;;;;3.92;3.60;;;25.80;23.00;;;;;;5014006;28;20229;-66
2023/06/17 15:22:18;;;;;;;3.42;3.15;;;25.80;23.20;;;;;;5015124;28;20182;-66
2023/06/17 15:24:44;;;;;;;2.40;2.20;;;25.90;23.60;;;;;;5016092;28;20208;-66
2023/06/17 15:27:11;;;;;;;3.45;3.22;;;25.90;23.20;;;;;;5014842;28;20212;-66
2023/06/17 15:29:39;;;;;;;2.70;2.60;;;25.90;22.80;;;;;;5014724;28;20248;-66
2023/06/17 15:32:06;;;;;;;3.22;2.92;;;25.90;23.00;;;;;;5014418;28;20615;-66
2023/06/17 15:34:33;;;;;;;3.17;3.00;;;25.80;23.00;;;;;;5014667;28;20648;-66
2023/06/17 15:37:01;;;;;;;3.08;2.90;;;25.80;23.00;;;;;;5014786;28;20205;-66
2023/06/17 15:39:28;;;;;;;3.47;3.00;;;25.70;22.90;;;;;;5014759;28;20225;-65
2023/06/17 15:41:55;;;;;;;2.63;2.42;;;25.70;23.20;;;;;;5015092;28;20268;-66
2023/06/17 15:44:23;;;;;;;3.10;2.95;;;25.70;23.20;;;;;;5014257;28;20572;-65
2023/06/17 15:46:50;;;;;;;3.08;2.88;;;25.70;23.70;;;;;;5015528;28;20186;-66
2023/06/17 15:49:17;;;;;;;3.35;3.05;;;25.70;23.30;;;;;;5014446;28;20308;-65
2023/06/17 15:51:44;;;;;;;2.97;2.78;;;25.70;23.80;;;;;;5014242;28;20213;-66
2023/06/17 15:54:12;;;;;;;3.13;2.92;;;25.80;23.50;;;;;;5015234;28;20205;-65
2023/06/17 15:56:39;;;;;;;3.40;3.10;;;25.70;22.90;;;;;;5014541;28;20240;-65
2023/06/17 15:59:07;;;;;;;3.10;3.00;;;25.60;22.90;;;;;;5014534;28;20229;-66
2023/06/17 16:01:33;;;;;;;4.35;4.05;;;25.60;23.30;;;;;;5014489;28;20212;-65
2023/06/17 16:04:08;;;;;;;3.63;3.42;;;25.60;23.50;;;;;;5014431;28;20210;-65
2023/06/17 16:06:35;;;;;;;3.30;3.20;;;25.60;23.70;;;;;;5011696;28;20211;-65
2023/06/17 16:09:02;;;;;;;3.67;3.38;;;25.60;23.90;;;;;;5014183;28;20257;-65
2023/06/17 16:11:30;;;;;;;3.40;2.50;;;25.60;24.30;;;;;;5014173;28;20205;-65
2023/06/17 16:13:57;;;;;;;3.10;2.92;;;25.60;23.80;;;;;;5014080;28;20209;-65
2023/06/17 16:16:24;;;;;;;3.08;2.92;;;25.60;24.10;;;;;;5013898;28;20260;-66
2023/06/17 16:18:50;;;;;;;3.13;2.95;;;25.60;24.00;;;;;;5014074;28;20247;-65
2023/06/17 16:21:17;;;;;;;2.85;2.75;;;25.70;24.70;;;;;;5014143;28;20289;-65
2023/06/17 16:23:44;;;;;;;5.88;3.38;;;25.80;25.10;;;;;;5014245;28;20205;-65
2023/06/17 16:26:11;;;;;;;2.95;2.85;;;25.70;23.60;;;;;;5014224;28;20197;-66
2023/06/17 16:28:39;;;;;;;3.63;3.42;;;25.80;23.80;;;;;;5014635;28;20243;-65
2023/06/17 16:31:06;;;;;;;3.75;3.45;;;25.80;24.00;;;;;;5014603;28;20256;-66
2023/06/17 16:33:33;;;;;;;3.97;3.63;;;25.80;23.50;;;;;;5015345;28;20672;-66
2023/06/17 16:35:59;;;;;;;3.70;3.50;;;25.70;23.30;;;;;;5015620;28;20202;-65
2023/06/17 16:38:26;;;;;;;3.65;3.45;;;25.70;23.50;;;;;;5014985;28;20719;-64
2023/06/17 16:40:53;;;;;;;3.22;3.03;;;25.60;23.60;;;;;;5015415;28;20205;-65
2023/06/17 16:43:21;;;;;;;3.65;3.45;;;25.60;24.70;;;;;;5015074;28;21323;-65
2023/06/17 16:45:49;;;;;;;2.92;2.72;;;25.50;24.00;;;;;;5015469;28;20204;-65
2023/06/17 16:48:16;;;;;;;3.40;3.17;;;25.50;23.50;;;;;;5015049;28;20213;-65
2023/06/17 16:50:43;;;;;;;3.60;3.25;;;25.40;24.20;;;;;;5015212;28;20208;-64
2023/06/17 16:53:11;;;;;;;5.75;3.60;;;25.40;23.70;;;;;;5015775;28;20197;-65
2023/06/17 16:55:38;;;;;;;3.63;3.33;;;25.30;23.80;;;;;;5015851;28;20276;-64
2023/06/17 16:58:04;;;;;;;4.72;4.28;;;25.30;23.80;;;;;;5015708;28;20205;-64
2023/06/17 17:00:31;;;;;;;4.30;3.92;;;25.20;23.10;;;;;;5014815;28;20225;-64
2023/06/17 17:02:59;;;;;;;4.03;3.72;;;25.10;22.80;;;;;;5014168;28;20205;-64
2023/06/17 17:05:26;;;;;;;6.03;4.00;;;25.00;23.00;;;;;;5014088;28;20653;-64
2023/06/17 17:07:53;;;;;;;3.80;3.50;;;25.00;23.20;;;;;;5014159;28;20205;-64
2023/06/17 17:10:22;;;;;;;3.92;3.63;;;24.90;22.90;;;;;;5013900;28;20218;-65
2023/06/17 17:12:50;;;;;;;3.42;3.30;;;24.90;22.60;;;;;;5013395;28;20651;-64
2023/06/17 17:15:17;;;;;;;3.97;3.50;;;24.80;22.90;;;;;;5014321;28;20221;-65
2023/06/17 17:17:43;;;;;;;3.55;3.35;;;24.80;23.10;;;;;;5013907;28;20209;-64
2023/06/17 17:20:12;;;;;;;4.65;4.25;;;24.70;22.80;;;;;;5013852;28;20226;-64
2023/06/17 17:22:40;;;;;;;3.30;3.10;;;24.60;22.50;;;;;;5020391;28;20197;-64
2023/06/17 17:25:07;;;;;;;5.90;3.80;;;24.60;23.10;;;;;;5026691;28;20272;-64
2023/06/17 17:27:34;;;;;;;3.70;3.50;;;24.50;22.80;;;;;;5028266;28;20213;-65
2023/06/17 17:30:01;;;;;;;3.58;3.28;;;24.50;22.80;;;;;;5027632;28;20222;-64
2023/06/17 17:32:27;;;;;;;3.63;3.30;;;24.50;23.10;;;;;;5026960;28;20265;-65
2023/06/17 17:34:54;;;;;;;4.00;3.70;;;24.40;23.30;;;;;;5019849;28;20204;-65
2023/06/17 17:37:23;;;;;;;3.25;3.05;;;24.40;23.50;;;;;;5013549;28;20223;-65
2023/06/17 17:39:50;;;;;;;3.30;2.95;;;24.30;23.50;;;;;;5013403;28;20229;-65
2023/06/17 17:42:17;;;;;;;3.25;3.05;;;24.30;23.40;;;;;;5013280;28;20209;-64
2023/06/17 17:44:44;;;;;;;3.17;2.97;;;24.30;23.70;;;;;;5016659;28;20212;-65
2023/06/17 17:47:10;;;;;;;3.17;2.97;;;24.20;24.00;;;;;;5016982;28;20201;-64
2023/06/17 17:49:38;;;;;;;3.80;3.50;;;24.20;24.00;;;;;;5017133;28;20229;-63
2023/06/17 17:52:05;;;;;;;3.83;3.53;;;24.20;24.00;;;;;;5016589;28;20644;-63